UATG/GUW METAR and TAF weather

Enter ICAO airport designator
Station Type Date Time Source
UATG METAR 2020/09/27 02:30 UTC NOAA

UATG 270230Z 09007MPS CAVOK 08/M02 Q1028 R14/CLRD70 NOSIG RMK QFE773/1030


Station Type Date Time Source
UATG Decoded METAR 2020/09/27 02:30 UTC NOAA

Station name not available
Sep 26, 2020 - 10:30 PM EDT / 2020.09.27 0230 UTC
Wind: from the E (090 degrees) at 16 MPH (14 KT):0
Visibility: greater than 7 mile(s):0
Temperature: 46 F (8 C)
Dew Point: 28 F (-2 C)
Relative Humidity: 49%
Pressure (altimeter): 30.36 in. Hg (1028 hPa)
ob: UATG 270230Z 09007MPS CAVOK 08/M02 Q1028 R14/CLRD70 NOSIG RMK QFE773/1030
cycle: 2

Station Type Date Time Source
UATG TAF 2020/09/26 18:21 UTC NOAA

TAF UATG 261700Z 2618/2718 08009MPS 9999 SCT033 TX20/2711Z TN09/2703Z
BECMG 2705/2706 10009G14MPS
BECMG 2714/2716 08007MPS

Example: see airport list